map of PNR home
PNR - Airport
Location
City:  Pointe Noire, Kouilou, Congo (Republic of)
ICAO:FCPP
IATA:PNR

Details
Type:Airport (Aerodrome, Airfield)
Use:Public/Civil, International (customs port of entry)
Latitude:448'53"S (-4.814721)
Longitude:1153'11"E (11.886389)
Elevation:56 ft (17 m)
Variation:2.40W (WMM2015 magnetic declination)
0.16 annual change
Runways:1
Longest:8596 × 148 ft (2620 × 45 m), paved

Time
Time Zone:UTC+1
Local Time:

Weather
METAR:FCPP 100700Z VRB03KT 9999 SCT023 FEW030CB 26/25 Q1015 NOSIG
TAF:FCPP 100500Z 1006/1106 18003KT 7000-TSRA SCT020 FEW030CB
BECMG 1008/1010 NSW SCT023
BECMG 1013/1015 SCT023 FEW030CB PROB30 1018/1021 TS

Related Locations
Nearby:
Farthest:PLPA: 12027 mi / 19356 km
Palmyra Island Atoll [Palmyra Airport (Cooper)], UM

Find:

   beyond  
but within

Other Information
Maps:
NOTAMs:
Links:
Sources:

  
  • flag of Congo (Republic of)
  

Sectional Chart

Flight Planning
at skyvector.com

Satellite Image

Google Maps Satellite view

 

Copyright © 2004-2018 Karl L. Swartz. All rights reserved.
The Great Circle Mapper name and logo are trademarks of the Great Circle Mapper.
All other trademarks mentioned herein belong to their respective owners.
Please see credits for attibutions and further copyright information.

  Follow gcmap on Facebook Follow gcmap on Twitter Follow gcmap on Google+ GCmap on LinkedIn

hCard Microformat

Geo Microformat